Station: Portable Qfrl (Mt Fox)  

  Atmospheric Gas Attenuation - ITU Rec 676-11   ----------------- dB/100km -----------------
Date Time Temp RH % AH g/m3 Dew Point Wind Direction Speed kph Gust kph Barometer mB Rainfall Since 9am 24GHz 47GHz 76GHz 122GHz 134GHz 241GHz
08/05 12:30 24.4 64 14.24 17.3 9 15 1013.1 0 30.9 31.8 56.5 149.1 156.9 544.3
08/05 12:20 23.8 65 13.98 17 7 9 1013.1 0 30.4 31.5 55.8 147.3 154.6 536.0
08/05 12:10 24.3 64 14.16 17.1 7 11 1013.1 0 30.8 31.7 56.2 148.4 156.0 541.1
08/05 12:00 24.4 65 14.46 17.5 7 9 1013.1 0 31.4 32.1 57.4 151.5 159.9 554.8
08/05 11:50 23.6 66 14.04 17 9 13 1013.1 0 30.6 31.7 56.2 148.4 155.8 540.3
08/05 11:40 24.2 63 13.86 16.8 9 13 1013.1 0 30.1 31.2 55.0 145.2 152.1 527.6
08/05 11:30 24 64 13.92 16.9 7 11 1013.1 0 30.3 31.4 55.4 146.3 153.3 531.8
08/05 11:20 23.1 70 14.47 17.4 7 11 1013.1 0 31.5 32.6 58.4 154.2 162.8 564.7
08/05 11:10 22.5 71 14.18 17.1 7 13 1013.1 0 30.9 32.4 57.6 152.1 160.0 554.8
08/05 11:00 22.9 69 14.1 17 6 9 1013.1 0 30.7 32.1 57.0 150.4 158.1 548.1
08/05 10:50 23.2 70 14.55 17.4 6 11 1013.1 0 31.7 32.7 58.7 154.9 163.7 567.9
08/05 10:40 23.5 67 14.17 17 7 13 1013.1 0 30.8 32.0 56.8 150.0 157.8 547.2
08/05 10:30 24 67 14.58 17.6 7 15 1013.1 0 31.7 32.5 58.2 153.7 162.4 563.5
08/05 10:20 23.7 68 14.54 17.6 7 11 1013.1 0 31.6 32.5 58.3 153.8 162.5 563.7
08/05 10:10 24.1 66 14.44 17.4 6 7 1013.1 0 31.4 32.2 57.5 151.9 160.3 556.0
08/05 10:00 23.7 68 14.54 17.4 6 11 1013.1 0 31.6 32.5 58.3 153.8 162.5 563.7
08/05 09:50 23.9 64 13.84 16.7 6 11 1013.1 0 30.1 31.3 55.2 145.6 152.4 528.7
08/05 09:40 23.6 70 14.89 17.8 4 4 1013.1 0 32.4 33.2 59.8 158.0 167.6 581.6
08/05 09:30 21.9 73 14.09 16.9 6 11 1013.1 0 30.8 32.4 57.7 152.2 160.0 554.7
08/05 09:20 21.4 75 14.06 16.8 7 11 1013.1 0 30.8 32.6 57.9 152.9 160.6 556.8
08/05 09:10 21.3 74 13.79 16.5 9 11 1013.1 0 30.2 32.1 56.8 150.0 157.0 544.2
08/05 09:00 21.7 74 14.11 16.9 6 9 1013.1 0.2 30.9 32.5 57.9 152.9 160.7 557.2
08/05 08:50 21.8 76 14.58 17.4 4 6 1013.1 0.2 31.8 33.3 59.9 158.1 167.2 579.8
08/05 08:40 21.4 76 14.25 17.1 4 6 1013.1 0.2 31.2 32.9 58.7 155.1 163.3 566.3
08/05 08:30 20.9 78 14.2 17 4 7 1013.1 0.2 31.1 33.0 58.9 155.5 163.7 567.5
08/05 08:20 20.2 82 14.34 17 2 6 1013.1 0.2 31.5 33.5 60.1 158.6 167.2 579.8
08/05 08:10 19.5 86 14.43 17.1 2 6 1013.1 0.2 31.7 34.0 61.0 161.1 170.1 589.7
08/05 08:00 18.8 93 14.98 17.7 0 2 1013.1 0.2 32.9 35.3 64.1 169.3 180.0 624.0
08/05 07:50 18.3 95 14.85 17.5 2 2 1013.1 0.2 32.7 35.2 63.9 168.8 179.2 621.2
08/05 07:40 17.7 95 14.33 16.9 0 4 1013.1 0.2 31.6 34.5 62.0 163.7 172.7 598.6
08/05 07:30 17.4 94 13.93 16.5 0 0 1013.1 0.2 30.8 33.9 60.4 159.5 167.4 579.9
08/05 07:20 17.1 96 13.97 16.4 0 0 1013.1 0.2 30.9 34.1 60.8 160.6 168.7 584.3
08/05 07:10 16.3 95 13.18 15.5 0 0 1013.1 0.2 29.3 32.9 57.8 152.6 158.6 549.1
08/05 07:00 16.2 95 13.1 15.4 0 0 1013.1 0.2 29.1 32.8 57.6 151.8 157.6 545.6
08/05 06:50 16.3 95 13.18 15.5 0 0 1013.1 0 29.3 32.9 57.8 152.6 158.6 549.1
08/05 06:40 16.5 94 13.2 15.6 0 0 1013.1 0 29.3 32.9 57.8 152.4 158.5 548.7
08/05 06:30 16.7 94 13.36 15.8 0 0 1013.1 0 29.6 33.1 58.4 154.0 160.4 555.5
08/05 06:20 16.8 94 13.44 15.9 0 0 1013.1 0 29.8 33.2 58.7 154.7 161.4 558.9
08/05 06:10 17 94 13.6 16 0 2 1013.1 0 30.1 33.4 59.2 156.3 163.3 565.8
08/05 06:00 17.2 94 13.76 16.2 0 4 1013.1 0 30.5 33.6 59.8 157.8 165.3 572.6
08/05 05:50 17.2 95 13.91 16.4 0 4 1013.1 0 30.8 33.9 60.5 159.6 167.5 580.4
08/05 05:40 16.9 95 13.66 16.1 0 0 1013.1 0 30.3 33.6 59.6 157.2 164.5 569.6
08/05 05:30 16.7 95 13.5 15.9 0 4 1013.1 0 29.9 33.4 59.0 155.7 162.5 562.8
08/05 05:20 16.5 94 13.2 15.6 0 0 1013.1 0 29.3 32.9 57.8 152.4 158.5 548.7
08/05 05:10 16.5 94 13.2 15.5 0 0 1013.1 0 29.3 32.9 57.8 152.4 158.5 548.7
08/05 05:00 16.7 93 13.22 15.5 0 2 1013.1 0 29.3 32.9 57.7 152.3 158.3 548.2
08/05 04:50 16.9 92 13.23 15.6 0 0 1013.1 0 29.3 32.8 57.6 152.0 158.1 547.3
08/05 04:40 17.1 91 13.25 15.7 0 2 1013.1 0 29.4 32.8 57.6 151.9 157.9 546.9
08/05 04:30 17.4 90 13.34 15.8 0 0 1013.1 0 29.5 32.8 57.7 152.3 158.6 549.4
08/05 04:20 17.5 90 13.42 15.9 0 2 1013.1 0 29.7 32.9 58.0 153.1 159.6 552.8
08/05 04:10 17.6 91 13.65 16.1 0 2 1013.1 0 30.2 33.3 59.0 155.7 162.8 563.9
08/05 04:00 17.6 92 13.8 16.3 2 4 1013.1 0 30.5 33.6 59.7 157.5 165.0 571.7
08/05 03:50 17.8 92 13.96 16.5 0 2 1013.1 0 30.8 33.8 60.2 159.0 167.0 578.5
08/05 03:40 17.9 93 14.2 16.7 0 2 1013.1 0 31.3 34.2 61.3 161.7 170.3 590.2
08/05 03:30 18 93 14.28 16.8 0 2 1013.1 0 31.5 34.3 61.5 162.5 171.3 593.6
08/05 03:20 18.1 93 14.37 17 2 4 1013.1 0 31.7 34.4 61.9 163.4 172.4 597.5
08/05 03:10 18.3 93 14.54 17.2 0 2 1013.1 0 32.0 34.6 62.5 165.0 174.5 604.9
08/05 03:00 18.3 94 14.7 17.3 2 4 1013.1 0 32.4 34.9 63.2 167.0 176.9 613.3
08/05 02:50 18.4 94 14.78 17.4 2 6 1013.1 0 32.6 35.0 63.5 167.7 177.9 616.7
08/05 02:40 18.5 94 14.87 17.5 4 6 1013.1 0 32.7 35.2 63.9 168.6 179.0 620.6
08/05 02:30 18.5 95 15.03 17.7 2 7 1013.1 0 33.1 35.5 64.6 170.6 181.5 629.1
08/05 02:20 18.6 94 14.96 17.7 2 4 1013.1 0 32.9 35.3 64.2 169.5 180.2 624.6
08/05 02:10 18.7 94 15.05 17.8 2 6 1013.1 0 33.1 35.4 64.5 170.4 181.3 628.5
08/05 02:00 18.7 94 15.05 17.8 2 4 1013.1 0 33.1 35.4 64.5 170.4 181.3 628.5
08/05 01:50 18.8 94 15.14 17.8 4 6 1013.1 0 33.3 35.5 64.9 171.3 182.4 632.4
08/05 01:40 18.8 94 15.14 17.8 2 4 1013.1 0 33.3 35.5 64.9 171.3 182.4 632.4
08/05 01:30 18.8 94 15.14 17.8 4 6 1013.1 0 33.3 35.5 64.9 171.3 182.4 632.4
08/05 01:20 18.7 94 15.05 17.8 4 7 1013.1 0 33.1 35.4 64.5 170.4 181.3 628.5
08/05 01:10 18.6 94 14.96 17.7 4 7 1013.1 0 32.9 35.3 64.2 169.5 180.2 624.6
08/05 01:00 18.5 94 14.87 17.6 4 6 1013.1 0 32.7 35.2 63.9 168.6 179.0 620.6
08/05 00:50 18.4 94 14.78 17.5 4 6 1013.1 0 32.6 35.0 63.5 167.7 177.9 616.7
08/05 00:40 18.4 95 14.94 17.6 2 6 1013.1 0 32.9 35.3 64.3 169.7 180.3 625.2
08/05 00:30 18.5 94 14.87 17.6 2 4 1013.1 0 32.7 35.2 63.9 168.6 179.0 620.6
08/05 00:20 18.5 94 14.87 17.6 2 7 1013.1 0 32.7 35.2 63.9 168.6 179.0 620.6
08/05 00:10 18.6 94 14.96 17.7 2 4 1013.1 0 32.9 35.3 64.2 169.5 180.2 624.6
08/05 00:00 18.5 95 15.03 17.7 2 7 1013.1 0 33.1 35.5 64.6 170.6 181.5 629.1
07/05 23:50 18.5 95 15.03 17.7 4 6 1013.1 0 33.1 35.5 64.6 170.6 181.5 629.1
07/05 23:40 18.5 94 14.87 17.6 2 4 1013.1 0 32.7 35.2 63.9 168.6 179.0 620.6
07/05 23:30 18.4 94 14.78 17.5 2 4 1013.1 0 32.6 35.0 63.5 167.7 177.9 616.7
07/05 23:20 18.5 94 14.87 17.5 4 6 1013.1 0 32.7 35.2 63.9 168.6 179.0 620.6
07/05 23:10 18.5 94 14.87 17.6 2 7 1013.1 0 32.7 35.2 63.9 168.6 179.0 620.6
07/05 23:00 18.6 94 14.96 17.7 4 6 1013.1 0 32.9 35.3 64.2 169.5 180.2 624.6
07/05 22:50 18.6 94 14.96 17.7 2 4 1013.1 0 32.9 35.3 64.2 169.5 180.2 624.6
07/05 22:40 18.6 95 15.12 17.8 2 2 1013.1 0 33.3 35.6 64.9 171.5 182.6 633.0
07/05 22:30 18.7 95 15.21 17.9 2 6 1013.1 0 33.5 35.7 65.3 172.4 183.7 637.0
07/05 22:20 18.7 95 15.21 17.9 4 6 1013.1 0 33.5 35.7 65.3 172.4 183.7 637.0
07/05 22:10 18.7 94 15.05 17.8 2 4 1013.1 0 33.1 35.4 64.5 170.4 181.3 628.5
07/05 22:00 18.9 94 15.23 17.9 2 6 1013.1 0 33.5 35.7 65.2 172.2 183.5 636.4
07/05 21:50 19 94 15.32 18 2 4 1013.1 0 33.7 35.8 65.5 173.1 184.7 640.3
07/05 21:40 19.1 94 15.41 18.2 2 4 1013.1 0 33.8 35.9 65.9 174.0 185.8 644.2
07/05 21:30 19.2 94 15.5 18.3 2 4 1013.1 0 34.0 36.1 66.2 174.9 186.9 648.2
07/05 21:20 19.3 94 15.59 18.4 2 4 1013.1 0 34.2 36.2 66.5 175.7 188.0 652.1
07/05 21:10 19.4 94 15.68 18.5 2 6 1013.1 0 34.4 36.3 66.9 176.6 189.2 656.1
07/05 21:00 19.4 94 15.68 18.5 2 6 1013.1 0 34.4 36.3 66.9 176.6 189.2 656.1
07/05 20:50 19.3 95 15.76 18.5 2 4 1013.1 0 34.6 36.5 67.3 177.9 190.7 661.2
07/05 20:40 19.3 94 15.59 18.4 2 6 1013.1 0 34.2 36.2 66.5 175.7 188.0 652.1
07/05 20:30 19.3 94 15.59 18.4 2 4 1013.1 0 34.2 36.2 66.5 175.7 188.0 652.1
07/05 20:20 19.2 94 15.5 18.3 2 6 1013.1 0 34.0 36.1 66.2 174.9 186.9 648.2
07/05 20:10 19.1 94 15.41 18.1 2 7 1013.1 0 33.8 35.9 65.9 174.0 185.8 644.2
07/05 20:00 19 93 15.15 17.9 0 2 1013.1 0 33.3 35.5 64.7 171.0 182.1 631.3

Last Refresh: 08-May-2026 12:10:19

Bureau of Meteorology